sensor_id;sensor_type;location;lat;lon;timestamp;P1;durP1;ratioP1;P2;durP2;ratioP2
17253;SDS011;32542;52.832;13.816;2023-02-26T00:02:13;4.85;;;3.65;;
17253;SDS011;32542;52.832;13.816;2023-02-26T00:05:18;5.28;;;3.70;;
17253;SDS011;32542;52.832;13.816;2023-02-26T00:08:21;7.65;;;3.83;;
17253;SDS011;32542;52.832;13.816;2023-02-26T00:11:24;6.15;;;4.22;;
17253;SDS011;32542;52.832;13.816;2023-02-26T00:14:28;5.85;;;3.88;;
17253;SDS011;32542;52.832;13.816;2023-02-26T00:17:33;7.03;;;3.92;;
17253;SDS011;32542;52.832;13.816;2023-02-26T00:20:45;6.18;;;4.30;;
17253;SDS011;32542;52.832;13.816;2023-02-26T00:23:48;5.00;;;3.50;;
17253;SDS011;32542;52.832;13.816;2023-02-26T00:26:51;6.82;;;3.78;;
17253;SDS011;32542;52.832;13.816;2023-02-26T00:29:55;6.43;;;4.13;;
17253;SDS011;32542;52.832;13.816;2023-02-26T00:32:59;5.97;;;3.83;;
17253;SDS011;32542;52.832;13.816;2023-02-26T00:36:12;5.03;;;3.45;;
17253;SDS011;32542;52.832;13.816;2023-02-26T00:39:28;4.95;;;3.78;;
17253;SDS011;32542;52.832;13.816;2023-02-26T00:42:39;6.30;;;3.58;;
17253;SDS011;32542;52.832;13.816;2023-02-26T00:45:43;4.90;;;3.33;;
17253;SDS011;32542;52.832;13.816;2023-02-26T00:48:54;6.13;;;3.80;;
17253;SDS011;32542;52.832;13.816;2023-02-26T00:52:07;5.03;;;3.35;;
17253;SDS011;32542;52.832;13.816;2023-02-26T00:55:20;6.80;;;3.40;;
17253;SDS011;32542;52.832;13.816;2023-02-26T00:58:23;5.70;;;3.33;;
17253;SDS011;32542;52.832;13.816;2023-02-26T01:01:26;3.65;;;3.00;;
17253;SDS011;32542;52.832;13.816;2023-02-26T01:04:29;5.72;;;3.13;;
17253;SDS011;32542;52.832;13.816;2023-02-26T01:07:36;4.97;;;3.03;;
17253;SDS011;32542;52.832;13.816;2023-02-26T01:10:43;4.55;;;3.22;;
17253;SDS011;32542;52.832;13.816;2023-02-26T01:13:47;4.28;;;3.17;;
17253;SDS011;32542;52.832;13.816;2023-02-26T01:16:52;5.03;;;3.33;;
17253;SDS011;32542;52.832;13.816;2023-02-26T01:20:00;3.78;;;3.03;;
17253;SDS011;32542;52.832;13.816;2023-02-26T01:23:07;4.28;;;2.90;;
17253;SDS011;32542;52.832;13.816;2023-02-26T01:26:14;4.18;;;3.10;;
17253;SDS011;32542;52.832;13.816;2023-02-26T01:29:23;6.90;;;3.03;;
17253;SDS011;32542;52.832;13.816;2023-02-26T01:32:28;4.82;;;3.22;;
17253;SDS011;32542;52.832;13.816;2023-02-26T01:35:39;4.97;;;2.90;;
17253;SDS011;32542;52.832;13.816;2023-02-26T01:38:48;3.95;;;2.85;;
17253;SDS011;32542;52.832;13.816;2023-02-26T01:42:00;5.63;;;3.20;;
17253;SDS011;32542;52.832;13.816;2023-02-26T01:45:11;5.38;;;3.20;;
17253;SDS011;32542;52.832;13.816;2023-02-26T01:48:20;2.97;;;2.60;;
17253;SDS011;32542;52.832;13.816;2023-02-26T01:51:39;4.25;;;3.05;;
17253;SDS011;32542;52.832;13.816;2023-02-26T01:54:49;6.97;;;3.17;;
17253;SDS011;32542;52.832;13.816;2023-02-26T01:57:54;4.90;;;2.63;;
17253;SDS011;32542;52.832;13.816;2023-02-26T02:01:00;4.18;;;2.72;;
17253;SDS011;32542;52.832;13.816;2023-02-26T02:04:04;4.15;;;2.60;;
17253;SDS011;32542;52.832;13.816;2023-02-26T02:07:11;5.13;;;2.65;;
17253;SDS011;32542;52.832;13.816;2023-02-26T02:10:17;3.40;;;2.55;;
17253;SDS011;32542;52.832;13.816;2023-02-26T02:13:25;3.45;;;2.65;;
17253;SDS011;32542;52.832;13.816;2023-02-26T02:16:39;3.83;;;2.53;;
17253;SDS011;32542;52.832;13.816;2023-02-26T02:19:54;4.55;;;3.00;;
17253;SDS011;32542;52.832;13.816;2023-02-26T02:23:14;4.35;;;2.85;;
17253;SDS011;32542;52.832;13.816;2023-02-26T02:30:20;3.60;;;2.63;;
17253;SDS011;32542;52.832;13.816;2023-02-26T02:33:39;2.78;;;2.38;;
17253;SDS011;32542;52.832;13.816;2023-02-26T02:36:47;3.45;;;2.40;;
17253;SDS011;32542;52.832;13.816;2023-02-26T02:39:56;4.65;;;2.58;;
17253;SDS011;32542;52.832;13.816;2023-02-26T02:43:03;3.72;;;2.50;;
17253;SDS011;32542;52.832;13.816;2023-02-26T02:46:11;3.80;;;2.50;;
17253;SDS011;32542;52.832;13.816;2023-02-26T02:49:22;4.68;;;2.65;;
17253;SDS011;32542;52.832;13.816;2023-02-26T02:52:31;3.90;;;2.45;;
17253;SDS011;32542;52.832;13.816;2023-02-26T02:55:39;2.97;;;2.47;;
17253;SDS011;32542;52.832;13.816;2023-02-26T02:58:49;3.28;;;2.58;;
17253;SDS011;32542;52.832;13.816;2023-02-26T03:01:58;3.38;;;2.35;;
17253;SDS011;32542;52.832;13.816;2023-02-26T03:05:09;6.25;;;2.70;;
17253;SDS011;32542;52.832;13.816;2023-02-26T03:08:13;4.10;;;2.25;;
17253;SDS011;32542;52.832;13.816;2023-02-26T03:11:20;3.40;;;2.38;;
17253;SDS011;32542;52.832;13.816;2023-02-26T03:14:23;3.05;;;2.30;;
17253;SDS011;32542;52.832;13.816;2023-02-26T03:17:29;2.40;;;2.17;;
17253;SDS011;32542;52.832;13.816;2023-02-26T03:20:37;3.25;;;2.10;;
17253;SDS011;32542;52.832;13.816;2023-02-26T03:23:48;3.67;;;2.20;;
17253;SDS011;32542;52.832;13.816;2023-02-26T03:26:57;3.58;;;2.30;;
17253;SDS011;32542;52.832;13.816;2023-02-26T03:30:03;3.10;;;2.15;;
17253;SDS011;32542;52.832;13.816;2023-02-26T03:33:16;4.65;;;2.70;;
17253;SDS011;32542;52.832;13.816;2023-02-26T03:36:26;3.20;;;2.28;;
17253;SDS011;32542;52.832;13.816;2023-02-26T03:39:53;2.58;;;2.10;;
17253;SDS011;32542;52.832;13.816;2023-02-26T03:43:01;2.95;;;2.13;;
17253;SDS011;32542;52.832;13.816;2023-02-26T03:46:09;2.55;;;2.05;;
17253;SDS011;32542;52.832;13.816;2023-02-26T03:49:17;3.40;;;2.15;;
17253;SDS011;32542;52.832;13.816;2023-02-26T03:52:29;4.57;;;2.10;;
17253;SDS011;32542;52.832;13.816;2023-02-26T03:56:03;2.78;;;2.05;;
17253;SDS011;32542;52.832;13.816;2023-02-26T03:59:36;3.00;;;2.08;;
17253;SDS011;32542;52.832;13.816;2023-02-26T04:03:12;2.75;;;1.90;;
17253;SDS011;32542;52.832;13.816;2023-02-26T04:06:18;3.50;;;1.85;;
17253;SDS011;32542;52.832;13.816;2023-02-26T04:09:23;2.58;;;1.95;;
17253;SDS011;32542;52.832;13.816;2023-02-26T04:12:27;2.97;;;2.00;;
17253;SDS011;32542;52.832;13.816;2023-02-26T04:15:31;3.72;;;2.08;;
17253;SDS011;32542;52.832;13.816;2023-02-26T04:18:34;2.90;;;2.10;;
17253;SDS011;32542;52.832;13.816;2023-02-26T04:21:38;2.53;;;2.13;;
17253;SDS011;32542;52.832;13.816;2023-02-26T04:24:43;2.22;;;1.75;;
17253;SDS011;32542;52.832;13.816;2023-02-26T04:27:48;1.77;;;1.63;;
17253;SDS011;32542;52.832;13.816;2023-02-26T04:30:52;3.17;;;1.90;;
17253;SDS011;32542;52.832;13.816;2023-02-26T04:33:55;2.78;;;1.90;;
17253;SDS011;32542;52.832;13.816;2023-02-26T04:36:58;2.80;;;1.67;;
17253;SDS011;32542;52.832;13.816;2023-02-26T04:40:03;1.90;;;1.60;;
17253;SDS011;32542;52.832;13.816;2023-02-26T04:43:07;2.75;;;1.67;;
17253;SDS011;32542;52.832;13.816;2023-02-26T04:46:18;2.95;;;1.90;;
17253;SDS011;32542;52.832;13.816;2023-02-26T04:49:21;1.70;;;1.60;;
17253;SDS011;32542;52.832;13.816;2023-02-26T04:52:24;2.88;;;1.92;;
17253;SDS011;32542;52.832;13.816;2023-02-26T04:55:29;1.95;;;1.67;;
17253;SDS011;32542;52.832;13.816;2023-02-26T04:58:32;1.92;;;1.73;;
17253;SDS011;32542;52.832;13.816;2023-02-26T05:01:41;2.70;;;1.90;;
17253;SDS011;32542;52.832;13.816;2023-02-26T05:04:44;2.80;;;2.00;;
17253;SDS011;32542;52.832;13.816;2023-02-26T05:07:47;2.05;;;1.60;;
17253;SDS011;32542;52.832;13.816;2023-02-26T05:10:51;2.00;;;1.45;;
17253;SDS011;32542;52.832;13.816;2023-02-26T05:13:55;2.22;;;1.73;;
17253;SDS011;32542;52.832;13.816;2023-02-26T05:16:58;2.15;;;1.60;;
17253;SDS011;32542;52.832;13.816;2023-02-26T05:20:01;2.63;;;1.60;;
17253;SDS011;32542;52.832;13.816;2023-02-26T05:23:05;2.47;;;1.70;;
17253;SDS011;32542;52.832;13.816;2023-02-26T05:26:09;2.97;;;1.88;;
17253;SDS011;32542;52.832;13.816;2023-02-26T05:29:13;2.78;;;1.60;;
17253;SDS011;32542;52.832;13.816;2023-02-26T05:32:17;2.35;;;1.55;;
17253;SDS011;32542;52.832;13.816;2023-02-26T05:35:21;2.60;;;1.70;;
17253;SDS011;32542;52.832;13.816;2023-02-26T05:38:24;1.98;;;1.52;;
17253;SDS011;32542;52.832;13.816;2023-02-26T05:41:28;3.50;;;1.95;;
17253;SDS011;32542;52.832;13.816;2023-02-26T05:44:31;2.45;;;1.70;;
17253;SDS011;32542;52.832;13.816;2023-02-26T05:47:35;1.88;;;1.60;;
17253;SDS011;32542;52.832;13.816;2023-02-26T05:50:38;2.42;;;1.60;;
17253;SDS011;32542;52.832;13.816;2023-02-26T05:53:41;2.38;;;1.50;;
17253;SDS011;32542;52.832;13.816;2023-02-26T05:56:46;3.28;;;1.83;;
17253;SDS011;32542;52.832;13.816;2023-02-26T05:59:49;2.65;;;1.67;;
17253;SDS011;32542;52.832;13.816;2023-02-26T06:02:52;2.22;;;1.60;;
17253;SDS011;32542;52.832;13.816;2023-02-26T06:05:55;2.00;;;1.50;;
17253;SDS011;32542;52.832;13.816;2023-02-26T06:08:58;1.98;;;1.60;;
17253;SDS011;32542;52.832;13.816;2023-02-26T06:12:03;1.85;;;1.58;;
17253;SDS011;32542;52.832;13.816;2023-02-26T06:15:07;2.47;;;1.50;;
17253;SDS011;32542;52.832;13.816;2023-02-26T06:18:11;3.17;;;1.33;;
17253;SDS011;32542;52.832;13.816;2023-02-26T06:21:14;2.10;;;1.52;;
17253;SDS011;32542;52.832;13.816;2023-02-26T06:24:18;2.22;;;1.40;;
17253;SDS011;32542;52.832;13.816;2023-02-26T06:27:22;1.75;;;1.55;;
17253;SDS011;32542;52.832;13.816;2023-02-26T06:30:25;1.55;;;1.30;;
17253;SDS011;32542;52.832;13.816;2023-02-26T06:33:28;1.50;;;1.30;;
17253;SDS011;32542;52.832;13.816;2023-02-26T06:36:31;1.83;;;1.40;;
17253;SDS011;32542;52.832;13.816;2023-02-26T06:39:34;5.63;;;1.48;;
17253;SDS011;32542;52.832;13.816;2023-02-26T06:42:39;2.22;;;1.50;;
17253;SDS011;32542;52.832;13.816;2023-02-26T06:45:42;2.78;;;1.50;;
17253;SDS011;32542;52.832;13.816;2023-02-26T06:48:45;1.95;;;1.65;;
17253;SDS011;32542;52.832;13.816;2023-02-26T06:51:48;1.80;;;1.33;;
17253;SDS011;32542;52.832;13.816;2023-02-26T06:54:51;1.40;;;1.30;;
17253;SDS011;32542;52.832;13.816;2023-02-26T06:57:56;3.22;;;1.30;;
17253;SDS011;32542;52.832;13.816;2023-02-26T07:00:59;2.20;;;1.30;;
17253;SDS011;32542;52.832;13.816;2023-02-26T07:04:04;1.50;;;1.15;;
17253;SDS011;32542;52.832;13.816;2023-02-26T07:07:07;2.13;;;1.40;;
17253;SDS011;32542;52.832;13.816;2023-02-26T07:10:11;2.17;;;1.58;;
17253;SDS011;32542;52.832;13.816;2023-02-26T07:13:16;1.70;;;1.10;;
17253;SDS011;32542;52.832;13.816;2023-02-26T07:16:19;1.38;;;1.13;;
17253;SDS011;32542;52.832;13.816;2023-02-26T07:19:23;1.50;;;1.30;;
17253;SDS011;32542;52.832;13.816;2023-02-26T07:22:26;1.40;;;1.30;;
17253;SDS011;32542;52.832;13.816;2023-02-26T07:25:29;1.45;;;1.17;;
17253;SDS011;32542;52.832;13.816;2023-02-26T07:28:33;1.85;;;1.30;;
17253;SDS011;32542;52.832;13.816;2023-02-26T07:31:36;2.28;;;1.23;;
17253;SDS011;32542;52.832;13.816;2023-02-26T07:34:40;2.00;;;1.40;;
17253;SDS011;32542;52.832;13.816;2023-02-26T07:37:43;1.67;;;1.33;;
17253;SDS011;32542;52.832;13.816;2023-02-26T07:40:46;1.63;;;1.17;;
17253;SDS011;32542;52.832;13.816;2023-02-26T07:43:50;1.58;;;1.30;;
17253;SDS011;32542;52.832;13.816;2023-02-26T07:46:53;1.77;;;1.20;;
17253;SDS011;32542;52.832;13.816;2023-02-26T07:49:56;1.67;;;1.42;;
17253;SDS011;32542;52.832;13.816;2023-02-26T07:52:59;2.25;;;1.33;;
17253;SDS011;32542;52.832;13.816;2023-02-26T07:56:02;3.17;;;1.20;;
17253;SDS011;32542;52.832;13.816;2023-02-26T07:59:07;2.05;;;1.23;;
17253;SDS011;32542;52.832;13.816;2023-02-26T08:02:11;1.60;;;1.25;;
17253;SDS011;32542;52.832;13.816;2023-02-26T08:05:15;1.75;;;1.30;;
17253;SDS011;32542;52.832;13.816;2023-02-26T08:08:18;1.30;;;1.20;;
17253;SDS011;32542;52.832;13.816;2023-02-26T08:11:21;1.65;;;1.30;;
17253;SDS011;32542;52.832;13.816;2023-02-26T08:14:25;2.55;;;1.30;;
17253;SDS011;32542;52.832;13.816;2023-02-26T08:17:28;1.23;;;1.10;;
17253;SDS011;32542;52.832;13.816;2023-02-26T08:20:31;2.15;;;1.35;;
17253;SDS011;32542;52.832;13.816;2023-02-26T08:23:34;1.48;;;1.35;;
17253;SDS011;32542;52.832;13.816;2023-02-26T08:26:37;2.58;;;1.42;;
17253;SDS011;32542;52.832;13.816;2023-02-26T08:29:43;2.63;;;1.55;;
17253;SDS011;32542;52.832;13.816;2023-02-26T08:32:47;2.55;;;1.23;;
17253;SDS011;32542;52.832;13.816;2023-02-26T08:35:50;2.55;;;1.10;;
17253;SDS011;32542;52.832;13.816;2023-02-26T08:38:54;4.22;;;0.93;;
17253;SDS011;32542;52.832;13.816;2023-02-26T08:41:57;4.20;;;1.30;;
17253;SDS011;32542;52.832;13.816;2023-02-26T08:45:01;2.55;;;1.38;;
17253;SDS011;32542;52.832;13.816;2023-02-26T08:48:05;4.70;;;1.90;;
17253;SDS011;32542;52.832;13.816;2023-02-26T08:51:11;2.67;;;1.92;;
17253;SDS011;32542;52.832;13.816;2023-02-26T08:54:14;6.63;;;2.50;;
17253;SDS011;32542;52.832;13.816;2023-02-26T08:57:17;3.08;;;1.90;;
17253;SDS011;32542;52.832;13.816;2023-02-26T09:00:22;5.43;;;1.83;;
17253;SDS011;32542;52.832;13.816;2023-02-26T09:03:25;4.85;;;2.17;;
17253;SDS011;32542;52.832;13.816;2023-02-26T09:06:28;4.95;;;2.42;;
17253;SDS011;32542;52.832;13.816;2023-02-26T09:09:32;7.45;;;2.22;;
17253;SDS011;32542;52.832;13.816;2023-02-26T09:12:36;3.17;;;2.40;;
17253;SDS011;32542;52.832;13.816;2023-02-26T09:15:40;3.50;;;2.10;;
17253;SDS011;32542;52.832;13.816;2023-02-26T09:18:44;3.22;;;1.92;;
17253;SDS011;32542;52.832;13.816;2023-02-26T09:21:47;5.13;;;2.47;;
17253;SDS011;32542;52.832;13.816;2023-02-26T09:24:51;2.92;;;2.10;;
17253;SDS011;32542;52.832;13.816;2023-02-26T09:27:54;4.25;;;2.58;;
17253;SDS011;32542;52.832;13.816;2023-02-26T09:31:00;6.68;;;2.38;;
17253;SDS011;32542;52.832;13.816;2023-02-26T09:34:03;12.80;;;2.20;;
17253;SDS011;32542;52.832;13.816;2023-02-26T09:37:07;11.25;;;2.20;;
17253;SDS011;32542;52.832;13.816;2023-02-26T09:40:14;7.90;;;2.20;;
17253;SDS011;32542;52.832;13.816;2023-02-26T09:43:47;6.03;;;1.80;;
17253;SDS011;32542;52.832;13.816;2023-02-26T09:47:01;6.75;;;2.00;;
17253;SDS011;32542;52.832;13.816;2023-02-26T09:50:10;7.40;;;2.20;;
17253;SDS011;32542;52.832;13.816;2023-02-26T09:53:19;4.20;;;1.55;;
17253;SDS011;32542;52.832;13.816;2023-02-26T09:56:25;3.85;;;1.45;;
17253;SDS011;32542;52.832;13.816;2023-02-26T09:59:31;3.10;;;1.20;;
17253;SDS011;32542;52.832;13.816;2023-02-26T10:02:39;2.50;;;1.20;;
17253;SDS011;32542;52.832;13.816;2023-02-26T10:05:52;8.35;;;1.85;;
17253;SDS011;32542;52.832;13.816;2023-02-26T10:09:15;7.00;;;1.00;;
17253;SDS011;32542;52.832;13.816;2023-02-26T10:12:27;3.10;;;1.00;;
17253;SDS011;32542;52.832;13.816;2023-02-26T10:15:34;9.05;;;1.50;;
17253;SDS011;32542;52.832;13.816;2023-02-26T10:18:43;11.10;;;1.50;;
17253;SDS011;32542;52.832;13.816;2023-02-26T10:21:50;6.90;;;1.83;;
17253;SDS011;32542;52.832;13.816;2023-02-26T10:24:57;7.20;;;1.52;;
17253;SDS011;32542;52.832;13.816;2023-02-26T10:28:07;10.43;;;2.65;;
17253;SDS011;32542;52.832;13.816;2023-02-26T10:31:24;6.50;;;2.17;;
17253;SDS011;32542;52.832;13.816;2023-02-26T10:34:36;5.55;;;2.10;;
17253;SDS011;32542;52.832;13.816;2023-02-26T10:37:45;4.15;;;1.88;;
17253;SDS011;32542;52.832;13.816;2023-02-26T10:40:52;6.63;;;2.90;;
17253;SDS011;32542;52.832;13.816;2023-02-26T10:44:03;9.10;;;2.83;;
17253;SDS011;32542;52.832;13.816;2023-02-26T10:47:17;8.40;;;3.00;;
17253;SDS011;32542;52.832;13.816;2023-02-26T10:50:31;7.63;;;3.25;;
17253;SDS011;32542;52.832;13.816;2023-02-26T10:53:34;8.05;;;3.10;;
17253;SDS011;32542;52.832;13.816;2023-02-26T10:56:41;7.03;;;3.00;;
17253;SDS011;32542;52.832;13.816;2023-02-26T10:59:44;6.82;;;3.20;;
17253;SDS011;32542;52.832;13.816;2023-02-26T11:02:47;4.53;;;3.00;;
17253;SDS011;32542;52.832;13.816;2023-02-26T11:05:55;5.50;;;3.38;;
17253;SDS011;32542;52.832;13.816;2023-02-26T11:08:58;5.18;;;3.45;;
17253;SDS011;32542;52.832;13.816;2023-02-26T11:12:04;7.38;;;3.60;;
17253;SDS011;32542;52.832;13.816;2023-02-26T11:15:15;8.63;;;4.00;;
17253;SDS011;32542;52.832;13.816;2023-02-26T11:18:21;11.10;;;4.75;;
17253;SDS011;32542;52.832;13.816;2023-02-26T11:21:33;11.55;;;5.53;;
17253;SDS011;32542;52.832;13.816;2023-02-26T11:24:40;14.10;;;5.32;;
17253;SDS011;32542;52.832;13.816;2023-02-26T11:27:48;19.65;;;5.00;;
17253;SDS011;32542;52.832;13.816;2023-02-26T11:30:55;20.65;;;5.22;;
17253;SDS011;32542;52.832;13.816;2023-02-26T11:33:59;15.05;;;5.15;;
17253;SDS011;32542;52.832;13.816;2023-02-26T11:37:06;14.00;;;5.38;;
17253;SDS011;32542;52.832;13.816;2023-02-26T11:40:13;16.98;;;5.03;;
17253;SDS011;32542;52.832;13.816;2023-02-26T11:43:18;15.23;;;5.43;;
17253;SDS011;32542;52.832;13.816;2023-02-26T11:46:24;19.92;;;4.90;;
17253;SDS011;32542;52.832;13.816;2023-02-26T11:49:27;12.27;;;4.75;;
17253;SDS011;32542;52.832;13.816;2023-02-26T11:52:33;10.70;;;4.72;;
17253;SDS011;32542;52.832;13.816;2023-02-26T11:55:42;13.90;;;4.55;;
17253;SDS011;32542;52.832;13.816;2023-02-26T11:58:49;13.45;;;4.78;;
17253;SDS011;32542;52.832;13.816;2023-02-26T12:01:56;13.32;;;4.35;;
17253;SDS011;32542;52.832;13.816;2023-02-26T12:05:04;16.83;;;5.18;;
17253;SDS011;32542;52.832;13.816;2023-02-26T12:08:13;13.98;;;4.90;;
17253;SDS011;32542;52.832;13.816;2023-02-26T12:14:50;13.43;;;4.85;;
17253;SDS011;32542;52.832;13.816;2023-02-26T12:18:09;11.48;;;5.10;;
17253;SDS011;32542;52.832;13.816;2023-02-26T12:21:30;10.52;;;5.00;;
17253;SDS011;32542;52.832;13.816;2023-02-26T12:24:49;12.48;;;4.97;;
17253;SDS011;32542;52.832;13.816;2023-02-26T12:35:02;19.30;;;5.22;;
17253;SDS011;32542;52.832;13.816;2023-02-26T12:38:20;19.33;;;6.68;;
17253;SDS011;32542;52.832;13.816;2023-02-26T12:41:43;19.55;;;4.68;;
17253;SDS011;32542;52.832;13.816;2023-02-26T12:45:07;18.77;;;4.88;;
17253;SDS011;32542;52.832;13.816;2023-02-26T12:48:33;19.80;;;4.65;;
17253;SDS011;32542;52.832;13.816;2023-02-26T12:51:58;23.08;;;5.00;;
17253;SDS011;32542;52.832;13.816;2023-02-26T12:55:22;21.30;;;4.75;;
17253;SDS011;32542;52.832;13.816;2023-02-26T12:58:42;14.18;;;5.07;;
17253;SDS011;32542;52.832;13.816;2023-02-26T13:02:06;13.95;;;4.55;;
17253;SDS011;32542;52.832;13.816;2023-02-26T13:05:30;19.45;;;4.90;;
17253;SDS011;32542;52.832;13.816;2023-02-26T13:08:45;11.95;;;4.78;;
17253;SDS011;32542;52.832;13.816;2023-02-26T13:11:55;12.45;;;3.85;;
17253;SDS011;32542;52.832;13.816;2023-02-26T13:15:17;15.60;;;4.45;;
17253;SDS011;32542;52.832;13.816;2023-02-26T13:18:45;11.88;;;4.68;;
17253;SDS011;32542;52.832;13.816;2023-02-26T13:21:56;17.23;;;4.30;;
17253;SDS011;32542;52.832;13.816;2023-02-26T13:25:02;11.45;;;4.30;;
17253;SDS011;32542;52.832;13.816;2023-02-26T13:28:11;11.40;;;4.03;;
17253;SDS011;32542;52.832;13.816;2023-02-26T13:31:27;12.60;;;4.90;;
17253;SDS011;32542;52.832;13.816;2023-02-26T13:34:35;14.20;;;4.68;;
17253;SDS011;32542;52.832;13.816;2023-02-26T13:37:44;10.48;;;4.35;;
17253;SDS011;32542;52.832;13.816;2023-02-26T13:40:55;14.20;;;4.72;;
17253;SDS011;32542;52.832;13.816;2023-02-26T13:44:11;11.13;;;4.32;;
17253;SDS011;32542;52.832;13.816;2023-02-26T13:47:39;10.50;;;3.72;;
17253;SDS011;32542;52.832;13.816;2023-02-26T13:51:04;9.05;;;4.43;;
17253;SDS011;32542;52.832;13.816;2023-02-26T13:57:41;8.48;;;4.43;;
17253;SDS011;32542;52.832;13.816;2023-02-26T14:00:56;9.90;;;4.55;;
17253;SDS011;32542;52.832;13.816;2023-02-26T14:04:21;10.82;;;4.47;;
17253;SDS011;32542;52.832;13.816;2023-02-26T14:10:57;8.10;;;3.92;;
17253;SDS011;32542;52.832;13.816;2023-02-26T14:17:36;11.18;;;4.10;;
17253;SDS011;32542;52.832;13.816;2023-02-26T14:20:42;7.32;;;3.97;;
17253;SDS011;32542;52.832;13.816;2023-02-26T14:23:47;9.63;;;4.13;;
17253;SDS011;32542;52.832;13.816;2023-02-26T14:27:03;7.32;;;3.95;;
17253;SDS011;32542;52.832;13.816;2023-02-26T14:30:15;8.95;;;4.05;;
17253;SDS011;32542;52.832;13.816;2023-02-26T14:33:25;10.98;;;3.72;;
17253;SDS011;32542;52.832;13.816;2023-02-26T14:36:34;9.55;;;4.10;;
17253;SDS011;32542;52.832;13.816;2023-02-26T14:39:42;9.60;;;4.22;;
17253;SDS011;32542;52.832;13.816;2023-02-26T14:42:50;9.27;;;4.03;;
17253;SDS011;32542;52.832;13.816;2023-02-26T14:45:56;6.93;;;3.80;;
17253;SDS011;32542;52.832;13.816;2023-02-26T14:48:59;10.27;;;4.65;;
17253;SDS011;32542;52.832;13.816;2023-02-26T14:55:49;9.98;;;4.75;;
17253;SDS011;32542;52.832;13.816;2023-02-26T14:59:19;10.35;;;4.40;;
17253;SDS011;32542;52.832;13.816;2023-02-26T15:02:37;6.85;;;4.22;;
17253;SDS011;32542;52.832;13.816;2023-02-26T15:05:57;7.28;;;4.22;;
17253;SDS011;32542;52.832;13.816;2023-02-26T15:09:14;12.20;;;5.45;;
17253;SDS011;32542;52.832;13.816;2023-02-26T15:12:28;9.70;;;4.57;;
17253;SDS011;32542;52.832;13.816;2023-02-26T15:15:45;8.20;;;4.13;;
17253;SDS011;32542;52.832;13.816;2023-02-26T15:19:08;7.55;;;4.25;;
17253;SDS011;32542;52.832;13.816;2023-02-26T15:22:35;8.30;;;4.20;;
17253;SDS011;32542;52.832;13.816;2023-02-26T15:25:49;8.05;;;5.13;;
17253;SDS011;32542;52.832;13.816;2023-02-26T15:28:54;8.40;;;4.43;;
17253;SDS011;32542;52.832;13.816;2023-02-26T15:31:59;9.27;;;4.25;;
17253;SDS011;32542;52.832;13.816;2023-02-26T15:35:14;10.15;;;4.72;;
17253;SDS011;32542;52.832;13.816;2023-02-26T15:38:19;8.43;;;4.90;;
17253;SDS011;32542;52.832;13.816;2023-02-26T15:41:23;7.95;;;4.85;;
17253;SDS011;32542;52.832;13.816;2023-02-26T15:44:30;8.18;;;4.97;;
17253;SDS011;32542;52.832;13.816;2023-02-26T15:47:37;7.82;;;4.97;;
17253;SDS011;32542;52.832;13.816;2023-02-26T15:50:42;9.45;;;4.22;;
17253;SDS011;32542;52.832;13.816;2023-02-26T15:53:47;7.15;;;4.55;;
17253;SDS011;32542;52.832;13.816;2023-02-26T15:56:52;6.85;;;4.30;;
17253;SDS011;32542;52.832;13.816;2023-02-26T16:00:01;8.32;;;4.70;;
17253;SDS011;32542;52.832;13.816;2023-02-26T16:03:13;7.63;;;4.35;;
17253;SDS011;32542;52.832;13.816;2023-02-26T16:06:17;14.02;;;4.68;;
17253;SDS011;32542;52.832;13.816;2023-02-26T16:09:24;7.45;;;4.80;;
17253;SDS011;32542;52.832;13.816;2023-02-26T16:12:31;8.10;;;4.40;;
17253;SDS011;32542;52.832;13.816;2023-02-26T16:15:39;9.10;;;5.13;;
17253;SDS011;32542;52.832;13.816;2023-02-26T16:18:44;21.15;;;5.30;;
17253;SDS011;32542;52.832;13.816;2023-02-26T16:21:48;12.73;;;5.35;;
17253;SDS011;32542;52.832;13.816;2023-02-26T16:24:54;14.35;;;5.32;;
17253;SDS011;32542;52.832;13.816;2023-02-26T16:28:01;11.98;;;5.65;;
17253;SDS011;32542;52.832;13.816;2023-02-26T16:31:10;19.75;;;4.88;;
17253;SDS011;32542;52.832;13.816;2023-02-26T16:34:22;16.55;;;5.63;;
17253;SDS011;32542;52.832;13.816;2023-02-26T16:37:31;15.88;;;6.13;;
17253;SDS011;32542;52.832;13.816;2023-02-26T16:40:37;12.57;;;5.28;;
17253;SDS011;32542;52.832;13.816;2023-02-26T16:43:49;15.57;;;4.95;;
17253;SDS011;32542;52.832;13.816;2023-02-26T16:46:56;19.17;;;5.55;;
17253;SDS011;32542;52.832;13.816;2023-02-26T16:50:00;15.85;;;5.55;;
17253;SDS011;32542;52.832;13.816;2023-02-26T16:53:04;12.93;;;5.15;;
17253;SDS011;32542;52.832;13.816;2023-02-26T16:56:10;10.57;;;5.15;;
17253;SDS011;32542;52.832;13.816;2023-02-26T16:59:18;13.90;;;5.35;;
17253;SDS011;32542;52.832;13.816;2023-02-26T17:02:25;11.52;;;5.50;;
17253;SDS011;32542;52.832;13.816;2023-02-26T17:05:32;12.05;;;6.15;;
17253;SDS011;32542;52.832;13.816;2023-02-26T17:08:41;9.25;;;5.60;;
17253;SDS011;32542;52.832;13.816;2023-02-26T17:11:49;18.25;;;6.28;;
17253;SDS011;32542;52.832;13.816;2023-02-26T17:14:54;12.23;;;5.88;;
17253;SDS011;32542;52.832;13.816;2023-02-26T17:18:00;16.40;;;5.50;;
17253;SDS011;32542;52.832;13.816;2023-02-26T17:21:03;11.48;;;4.90;;
17253;SDS011;32542;52.832;13.816;2023-02-26T17:24:10;11.55;;;5.07;;
17253;SDS011;32542;52.832;13.816;2023-02-26T17:27:20;15.68;;;5.72;;
17253;SDS011;32542;52.832;13.816;2023-02-26T17:30:28;12.32;;;5.10;;
17253;SDS011;32542;52.832;13.816;2023-02-26T17:33:35;11.13;;;4.88;;
17253;SDS011;32542;52.832;13.816;2023-02-26T17:36:41;19.60;;;7.10;;
17253;SDS011;32542;52.832;13.816;2023-02-26T17:39:45;11.30;;;4.95;;
17253;SDS011;32542;52.832;13.816;2023-02-26T17:42:48;15.18;;;5.97;;
17253;SDS011;32542;52.832;13.816;2023-02-26T17:45:52;9.65;;;5.40;;
17253;SDS011;32542;52.832;13.816;2023-02-26T17:48:56;14.68;;;7.05;;
17253;SDS011;32542;52.832;13.816;2023-02-26T17:51:59;9.57;;;6.30;;
17253;SDS011;32542;52.832;13.816;2023-02-26T17:55:02;11.75;;;5.75;;
17253;SDS011;32542;52.832;13.816;2023-02-26T17:58:06;12.90;;;6.00;;
17253;SDS011;32542;52.832;13.816;2023-02-26T18:01:14;13.63;;;6.15;;
17253;SDS011;32542;52.832;13.816;2023-02-26T18:04:19;8.98;;;5.85;;
17253;SDS011;32542;52.832;13.816;2023-02-26T18:07:23;9.88;;;6.72;;
17253;SDS011;32542;52.832;13.816;2023-02-26T18:10:26;19.70;;;6.70;;
17253;SDS011;32542;52.832;13.816;2023-02-26T18:13:29;14.43;;;7.40;;
17253;SDS011;32542;52.832;13.816;2023-02-26T18:16:35;11.70;;;7.00;;
17253;SDS011;32542;52.832;13.816;2023-02-26T18:19:42;12.35;;;7.50;;
17253;SDS011;32542;52.832;13.816;2023-02-26T18:22:46;11.80;;;7.68;;
17253;SDS011;32542;52.832;13.816;2023-02-26T18:25:51;15.70;;;7.68;;
17253;SDS011;32542;52.832;13.816;2023-02-26T18:28:56;15.00;;;8.02;;
17253;SDS011;32542;52.832;13.816;2023-02-26T18:31:59;11.90;;;7.57;;
17253;SDS011;32542;52.832;13.816;2023-02-26T18:35:05;14.95;;;8.50;;
17253;SDS011;32542;52.832;13.816;2023-02-26T18:38:09;14.48;;;8.10;;
17253;SDS011;32542;52.832;13.816;2023-02-26T18:41:13;18.98;;;8.45;;
17253;SDS011;32542;52.832;13.816;2023-02-26T18:44:16;16.55;;;8.48;;
17253;SDS011;32542;52.832;13.816;2023-02-26T18:47:19;16.73;;;8.15;;
17253;SDS011;32542;52.832;13.816;2023-02-26T18:50:24;15.73;;;8.95;;
17253;SDS011;32542;52.832;13.816;2023-02-26T18:53:27;13.93;;;9.35;;
17253;SDS011;32542;52.832;13.816;2023-02-26T18:56:30;25.15;;;13.25;;
17253;SDS011;32542;52.832;13.816;2023-02-26T18:59:33;28.17;;;18.10;;